createdAt,value
2024-05-09T00:03:47.811Z,54.92
2024-05-09T00:04:47.992Z,54.82
2024-05-09T00:05:48.134Z,55.02
2024-05-09T00:06:48.238Z,55.12
2024-05-09T00:07:48.479Z,55.22
2024-05-09T00:08:48.581Z,54.51
2024-05-09T00:11:03.236Z,54.28
2024-05-09T00:12:03.484Z,53.78
2024-05-09T00:13:03.488Z,53.88
2024-05-09T00:14:03.743Z,54.28
2024-05-09T00:15:03.879Z,54.49
2024-05-09T00:16:03.960Z,54.18
2024-05-09T00:17:04.216Z,54.49
2024-05-09T00:18:05.323Z,54.49
2024-05-09T00:19:04.675Z,54.05
2024-05-09T00:20:11.073Z,53.85
2024-05-09T00:21:05.956Z,53.65
2024-05-09T00:23:40.550Z,53.34
2024-05-09T00:24:19.662Z,53.75
2024-05-09T00:25:19.912Z,53.55
2024-05-09T00:26:20.096Z,53.65
2024-05-09T00:27:20.237Z,54.16
2024-05-09T00:28:20.432Z,54.05
2024-05-09T00:29:20.661Z,53.75
2024-05-09T00:30:28.005Z,54.05
2024-05-09T00:31:21.953Z,53.96
2024-05-09T00:32:21.372Z,54.05
2024-05-09T00:33:21.660Z,53.83
2024-05-09T00:34:21.596Z,53.83
2024-05-09T00:35:21.712Z,53.83
2024-05-09T00:36:21.791Z,53.63
2024-05-09T00:37:21.977Z,53.63
2024-05-09T00:38:22.127Z,53.83
2024-05-09T00:39:22.301Z,53.83
2024-05-09T00:40:30.925Z,53.83
2024-05-09T00:41:23.691Z,53.72
2024-05-09T00:42:22.802Z,53.52
2024-05-09T00:43:23.025Z,54.03
2024-05-09T00:44:23.256Z,54.13
2024-05-09T00:45:23.304Z,54.13
2024-05-09T00:46:23.518Z,54.03
2024-05-09T00:47:23.988Z,54.44
2024-05-09T00:48:23.904Z,54.44
2024-05-09T00:49:24.149Z,54.84
2024-05-09T00:50:29.979Z,54.94
2024-05-09T00:51:25.422Z,54.84
2024-05-09T00:52:24.586Z,54.74
2024-05-09T00:53:24.861Z,55.25
2024-05-09T00:54:24.927Z,54.84
2024-05-09T00:55:25.025Z,54.74
2024-05-09T00:56:25.412Z,55.15
2024-05-09T00:57:25.436Z,55.17
2024-05-09T00:58:25.525Z,55.17
2024-05-09T00:59:25.852Z,55.15
2024-05-09T01:00:32.116Z,55.58
2024-05-09T01:01:27.225Z,55.27
2024-05-09T01:02:26.384Z,55.17
2024-05-09T01:03:26.822Z,55.78
2024-05-09T01:04:26.652Z,55.58
2024-05-09T01:05:26.920Z,55.78
2024-05-09T01:06:27.000Z,55.88
2024-05-09T01:07:27.193Z,55.40
2024-05-09T01:08:27.430Z,55.50
2024-05-09T01:09:27.532Z,55.50
2024-05-09T01:10:33.853Z,55.50
2024-05-09T01:11:28.973Z,55.50
2024-05-09T01:12:28.254Z,55.71
2024-05-09T01:13:28.385Z,55.71
2024-05-09T01:14:28.505Z,55.91
2024-05-09T01:15:28.587Z,55.91
2024-05-09T01:16:28.720Z,55.80
2024-05-09T01:17:29.036Z,55.91
2024-05-09T01:18:29.149Z,56.01
2024-05-09T01:19:29.382Z,56.11
2024-05-09T01:20:39.549Z,56.01
2024-05-09T01:21:30.631Z,56.11
2024-05-09T01:22:29.772Z,56.01
2024-05-09T01:23:30.117Z,56.01
2024-05-09T01:24:30.108Z,56.01
2024-05-09T01:25:30.324Z,56.01
2024-05-09T01:26:30.643Z,56.21
2024-05-09T01:27:30.650Z,56.24
2024-05-09T01:28:30.825Z,56.24
2024-05-09T01:29:31.089Z,56.44
2024-05-09T01:30:35.523Z,56.34
2024-05-09T01:31:32.439Z,56.34
2024-05-09T01:32:31.733Z,56.54
2024-05-09T01:33:32.081Z,56.54
2024-05-09T01:34:31.855Z,56.34
2024-05-09T01:35:32.110Z,56.65
2024-05-09T01:36:32.230Z,56.54
2024-05-09T01:37:32.422Z,56.65
2024-05-09T01:38:32.605Z,56.85
2024-05-09T01:39:32.766Z,57.15
2024-05-09T01:40:37.619Z,57.46
2024-05-09T01:41:34.187Z,57.76
2024-05-09T01:42:33.291Z,57.56
2024-05-09T01:43:33.524Z,57.35
2024-05-09T01:44:33.744Z,57.48
2024-05-09T01:45:33.836Z,57.15
2024-05-09T01:46:34.043Z,57.05
2024-05-09T01:47:34.445Z,57.18
2024-05-09T01:48:34.429Z,57.18
2024-05-09T01:49:34.572Z,57.28
2024-05-09T01:50:39.535Z,57.28
2024-05-09T01:51:35.918Z,57.38
2024-05-09T01:52:35.111Z,57.38
2024-05-09T01:53:35.400Z,57.28
2024-05-09T01:54:35.407Z,57.18
2024-05-09T01:55:35.625Z,57.38
2024-05-09T01:56:35.921Z,57.28
2024-05-09T01:57:35.976Z,57.28
2024-05-09T01:58:36.115Z,57.48
2024-05-09T01:59:36.343Z,57.48
2024-05-09T02:00:40.609Z,57.68
2024-05-09T02:01:55.722Z,57.81
2024-05-09T02:02:37.927Z,58.33
2024-05-09T02:03:37.152Z,58.02
2024-05-09T02:04:37.302Z,58.02
2024-05-09T02:05:37.445Z,58.33
2024-05-09T02:06:37.562Z,58.22
2024-05-09T02:07:37.768Z,58.53
2024-05-09T02:08:38.018Z,58.25
2024-05-09T02:09:38.067Z,58.76
2024-05-09T02:10:38.225Z,58.76
2024-05-09T02:11:38.477Z,58.86
2024-05-09T02:12:38.546Z,59.06
2024-05-09T02:13:38.752Z,58.76
2024-05-09T02:14:39.030Z,59.06
2024-05-09T02:15:39.126Z,59.19
2024-05-09T02:16:39.317Z,58.78
2024-05-09T02:17:39.550Z,58.89
2024-05-09T02:18:39.788Z,59.09
2024-05-09T02:19:39.848Z,58.78
2024-05-09T02:20:40.082Z,58.89
2024-05-09T02:21:40.164Z,58.99
2024-05-09T02:22:40.348Z,58.89
2024-05-09T02:23:40.577Z,59.12
2024-05-09T02:24:40.665Z,58.92
2024-05-09T02:25:40.917Z,59.53
2024-05-09T02:26:41.171Z,59.42
2024-05-09T02:27:41.251Z,59.01
2024-05-09T02:28:41.383Z,58.71
2024-05-09T02:29:41.670Z,58.92
2024-05-09T02:30:42.635Z,58.94
2024-05-09T02:31:41.944Z,59.55
2024-05-09T02:32:42.196Z,59.75
2024-05-09T02:33:42.374Z,60.06
2024-05-09T02:34:42.453Z,60.37
2024-05-09T02:35:43.858Z,60.06
2024-05-09T02:36:42.799Z,59.75
2024-05-09T02:37:43.037Z,59.75
2024-05-09T02:38:43.152Z,60.60
2024-05-09T02:39:43.291Z,60.30
2024-05-09T02:40:43.578Z,59.99
2024-05-09T02:41:43.696Z,60.30
2024-05-09T02:42:43.860Z,61.31
2024-05-09T02:43:44.095Z,60.60
2024-05-09T02:44:44.166Z,60.70
2024-05-09T02:45:44.336Z,60.80
2024-05-09T02:46:44.578Z,61.41
2024-05-09T02:47:44.861Z,61.52
2024-05-09T02:48:44.920Z,61.14
2024-05-09T02:49:45.101Z,60.83
2024-05-09T02:50:45.326Z,60.63
2024-05-09T02:51:45.361Z,60.02
2024-05-09T02:52:45.595Z,60.73
2024-05-09T02:53:45.705Z,61.04
2024-05-09T02:54:45.863Z,60.73
2024-05-09T02:55:46.044Z,61.44
2024-05-09T02:56:46.270Z,61.34
2024-05-09T02:57:46.413Z,61.37
2024-05-09T02:58:46.781Z,61.68
2024-05-09T02:59:46.778Z,61.98
2024-05-09T03:00:46.982Z,62.18
2024-05-09T03:01:47.239Z,62.39
2024-05-09T03:02:47.483Z,62.18
2024-05-09T03:03:47.617Z,61.98
2024-05-09T03:04:47.732Z,62.39
2024-05-09T03:05:47.970Z,62.73
2024-05-09T03:06:47.998Z,62.32
2024-05-09T03:07:48.188Z,62.21
2024-05-09T03:08:48.408Z,62.73
2024-05-09T03:09:48.627Z,62.73
2024-05-09T03:10:48.712Z,62.62
2024-05-09T03:11:48.993Z,62.42
2024-05-09T03:12:49.075Z,63.44
2024-05-09T03:13:49.294Z,63.03
2024-05-09T03:14:49.419Z,62.82
2024-05-09T03:15:49.616Z,64.08
2024-05-09T03:16:49.867Z,63.67
2024-05-09T03:17:50.127Z,63.37
2024-05-09T03:18:50.214Z,63.57
2024-05-09T03:19:50.367Z,63.67
2024-05-09T03:20:50.522Z,63.47
2024-05-09T03:21:50.630Z,63.16
2024-05-09T03:22:53.461Z,63.16
2024-05-09T03:23:51.011Z,64.39
2024-05-09T03:24:51.157Z,64.08
2024-05-09T03:25:51.443Z,63.87
2024-05-09T03:26:51.503Z,64.39
2024-05-09T03:27:51.754Z,64.28
2024-05-09T03:28:51.886Z,64.18
2024-05-09T03:29:52.041Z,64.28
2024-05-09T03:30:52.244Z,64.79
2024-05-09T03:31:52.537Z,64.18
2024-05-09T03:32:52.748Z,64.18
2024-05-09T03:33:53.045Z,64.08
2024-05-09T03:34:52.986Z,64.69
2024-05-09T03:35:53.180Z,64.79
2024-05-09T03:36:53.359Z,64.39
2024-05-09T03:37:53.547Z,64.39
2024-05-09T03:38:53.643Z,64.59
2024-05-09T03:39:53.777Z,65.20
2024-05-09T03:40:54.004Z,65.10
2024-05-09T03:41:54.132Z,64.90
2024-05-09T03:42:54.314Z,64.90
2024-05-09T03:43:54.499Z,64.59
2024-05-09T03:44:54.588Z,64.08
2024-05-09T03:45:54.799Z,64.69
2024-05-09T03:46:55.047Z,64.59
2024-05-09T03:47:55.507Z,64.59
2024-05-09T03:48:55.427Z,64.56
2024-05-09T03:49:55.534Z,64.46
2024-05-09T03:50:55.739Z,64.25
2024-05-09T03:51:55.820Z,63.95
2024-05-09T03:52:56.066Z,63.54
2024-05-09T03:53:56.173Z,63.75
2024-05-09T03:54:56.310Z,63.41
2024-05-09T03:55:56.568Z,63.41
2024-05-09T03:56:56.659Z,63.41
2024-05-09T03:57:56.831Z,63.31
2024-05-09T03:58:57.056Z,63.10
2024-05-09T03:59:57.250Z,63.20
2024-05-09T04:00:57.468Z,63.00
2024-05-09T04:01:57.630Z,62.80
2024-05-09T04:02:57.846Z,62.80
2024-05-09T04:03:57.945Z,62.90
2024-05-09T04:04:58.088Z,63.00
2024-05-09T04:05:58.263Z,62.87
2024-05-09T04:06:58.461Z,62.90
2024-05-09T04:07:58.759Z,62.87
2024-05-09T04:08:58.913Z,62.87
2024-05-09T04:09:59.068Z,62.56
2024-05-09T04:10:59.244Z,62.97
2024-05-09T04:11:59.558Z,62.87
2024-05-09T04:12:59.611Z,62.66
2024-05-09T04:13:59.771Z,62.97
2024-05-09T04:14:59.938Z,63.07
2024-05-09T04:16:01.230Z,63.07
2024-05-09T04:17:00.267Z,62.87
2024-05-09T04:18:01.642Z,62.77
2024-05-09T04:19:00.708Z,63.07
2024-05-09T04:20:00.909Z,62.66
2024-05-09T04:21:00.951Z,62.87
2024-05-09T04:22:01.118Z,62.77
2024-05-09T04:23:01.416Z,62.56
2024-05-09T04:24:01.502Z,62.54
2024-05-09T04:25:01.718Z,62.74
2024-05-09T04:26:02.900Z,62.84
2024-05-09T04:27:02.088Z,62.54
2024-05-09T04:28:02.271Z,62.63
2024-05-09T04:29:02.358Z,62.43
2024-05-09T04:30:02.883Z,62.63
2024-05-09T04:31:02.680Z,62.43
2024-05-09T04:32:03.033Z,62.74
2024-05-09T04:33:03.209Z,62.54
2024-05-09T04:34:03.562Z,62.63
2024-05-09T04:35:03.394Z,62.43
2024-05-09T04:36:03.562Z,62.43
2024-05-09T04:37:03.783Z,62.54
2024-05-09T04:38:03.942Z,62.33
2024-05-09T04:39:04.129Z,62.23
2024-05-09T04:40:06.890Z,62.33
2024-05-09T04:41:04.531Z,62.30
2024-05-09T04:42:04.563Z,62.61
2024-05-09T04:43:04.809Z,62.20
2024-05-09T04:44:05.050Z,62.20
2024-05-09T04:45:05.091Z,62.30
2024-05-09T04:46:05.293Z,62.30
2024-05-09T04:47:05.483Z,61.97
2024-05-09T04:48:05.921Z,62.07
2024-05-09T04:49:05.916Z,62.07
2024-05-09T04:50:08.820Z,61.97
2024-05-09T04:51:07.210Z,61.97
2024-05-09T04:52:06.305Z,62.17
2024-05-09T04:53:07.600Z,61.83
2024-05-09T04:54:08.501Z,61.53
2024-05-09T04:55:06.879Z,61.20
2024-05-09T04:56:07.056Z,60.99
2024-05-09T04:57:07.236Z,60.89
2024-05-09T04:58:07.383Z,61.20
2024-05-09T04:59:07.633Z,61.91
2024-05-09T05:00:14.505Z,61.51
2024-05-09T05:01:08.919Z,61.53
2024-05-09T05:02:08.133Z,61.83
2024-05-09T05:03:09.722Z,61.81
2024-05-09T05:04:08.575Z,61.81
2024-05-09T05:05:08.747Z,61.71
2024-05-09T05:06:08.837Z,61.71
2024-05-09T05:07:08.910Z,61.60
2024-05-09T05:08:09.103Z,61.91
2024-05-09T05:09:09.247Z,62.41
2024-05-09T05:10:14.757Z,62.32
2024-05-09T05:11:10.901Z,62.32
2024-05-09T05:12:09.903Z,62.11
2024-05-09T05:13:09.989Z,62.11
2024-05-09T05:14:10.159Z,62.11
2024-05-09T05:15:10.376Z,62.11
2024-05-09T05:16:10.538Z,62.11
2024-05-09T05:17:10.744Z,62.11
2024-05-09T05:19:13.497Z,61.88
2024-05-09T05:20:15.233Z,61.78
2024-05-09T05:21:12.492Z,61.75
2024-05-09T05:22:11.570Z,61.29
2024-05-09T05:23:11.937Z,60.04
2024-05-09T05:24:11.883Z,59.07
2024-05-09T05:25:12.084Z,58.11
2024-05-09T05:26:12.312Z,56.23
2024-05-09T05:27:12.463Z,55.16
2024-05-09T05:28:12.639Z,54.33
2024-05-09T05:29:12.876Z,53.98
2024-05-09T05:30:21.031Z,52.72
2024-05-09T05:31:14.214Z,52.89
2024-05-09T05:32:15.661Z,52.14
2024-05-09T05:33:13.968Z,51.09
2024-05-09T05:34:13.743Z,50.13
2024-05-09T05:35:13.984Z,48.60
2024-05-09T05:36:14.015Z,47.96
2024-05-09T05:37:14.171Z,46.55
2024-05-09T05:38:14.536Z,46.53
2024-05-09T05:39:14.526Z,46.33
2024-05-09T05:40:20.914Z,46.41
2024-05-09T05:41:15.945Z,45.78
2024-05-09T05:42:15.011Z,45.06
2024-05-09T05:43:15.236Z,44.54
2024-05-09T05:44:15.433Z,45.00
2024-05-09T05:45:15.558Z,44.47
2024-05-09T05:46:15.786Z,44.25
2024-05-09T05:47:15.990Z,42.02
2024-05-09T05:48:16.888Z,41.11
2024-05-09T05:49:16.580Z,41.80
2024-05-09T05:50:24.660Z,40.98
2024-05-09T05:51:17.694Z,40.86
2024-05-09T05:52:16.870Z,40.74
2024-05-09T05:53:17.085Z,40.32
2024-05-09T05:54:17.169Z,40.80
2024-05-09T05:55:17.318Z,40.18
2024-05-09T05:56:17.571Z,38.87
2024-05-09T05:57:17.698Z,37.96
2024-05-09T05:58:17.883Z,38.06
2024-05-09T05:59:18.100Z,38.64
2024-05-09T06:00:28.639Z,37.32
2024-05-09T06:01:19.370Z,37.23
2024-05-09T06:02:18.643Z,37.41
2024-05-09T06:03:18.810Z,36.79
2024-05-09T06:04:18.961Z,36.18
2024-05-09T06:05:19.121Z,35.19
2024-05-09T06:06:19.274Z,35.17
2024-05-09T06:07:19.429Z,35.46
2024-05-09T06:08:19.674Z,35.25
2024-05-09T06:09:19.823Z,34.94
2024-05-09T06:10:25.468Z,33.94
2024-05-09T06:11:21.215Z,33.54
2024-05-09T06:12:20.469Z,34.31
2024-05-09T06:13:20.552Z,33.62
2024-05-09T06:14:20.810Z,33.80
2024-05-09T06:15:20.835Z,32.52
2024-05-09T06:16:21.011Z,31.93
2024-05-09T06:17:21.417Z,31.73
2024-05-09T06:18:21.808Z,31.73
2024-05-09T06:19:21.660Z,32.32
2024-05-09T06:20:31.267Z,31.71
2024-05-09T06:21:22.985Z,32.40
2024-05-09T06:22:22.057Z,30.92
2024-05-09T06:23:22.409Z,31.22
2024-05-09T06:24:22.457Z,30.71
2024-05-09T06:25:22.606Z,30.41
2024-05-09T06:26:22.848Z,29.92
2024-05-09T06:27:23.050Z,29.92
2024-05-09T06:28:23.157Z,30.11
2024-05-09T06:29:23.419Z,30.61
2024-05-09T06:30:34.956Z,30.91
2024-05-09T06:31:24.792Z,30.40
2024-05-09T06:32:23.942Z,30.50
2024-05-09T06:33:24.232Z,30.50
2024-05-09T06:34:24.301Z,30.78
2024-05-09T06:35:24.389Z,29.99
2024-05-09T06:36:24.563Z,30.47
2024-05-09T06:37:24.744Z,29.78
2024-05-09T06:38:24.911Z,29.76
2024-05-09T06:39:25.082Z,29.86
2024-05-09T06:40:29.862Z,29.16
2024-05-09T06:41:26.564Z,29.75
2024-05-09T06:42:25.601Z,29.24
2024-05-09T06:43:25.740Z,29.33
2024-05-09T06:44:25.996Z,29.33
2024-05-09T06:45:26.117Z,29.02
2024-05-09T06:46:26.252Z,29.00
2024-05-09T06:47:26.532Z,29.39
2024-05-09T06:48:26.823Z,28.50
2024-05-09T06:49:26.886Z,28.89
2024-05-09T06:50:31.107Z,28.99
2024-05-09T06:51:28.167Z,28.29
2024-05-09T06:52:27.319Z,27.99
2024-05-09T06:53:27.544Z,28.29
2024-05-09T06:54:27.666Z,28.19
2024-05-09T06:55:27.829Z,28.27
2024-05-09T06:56:28.029Z,27.88
2024-05-09T06:57:28.186Z,27.88
2024-05-09T06:58:28.350Z,27.69
2024-05-09T06:59:28.761Z,27.37
2024-05-09T07:00:35.756Z,27.19
2024-05-09T07:01:29.951Z,27.78
2024-05-09T07:02:29.118Z,28.86
2024-05-09T07:03:29.412Z,29.06
2024-05-09T07:04:29.514Z,28.27
2024-05-09T07:05:29.695Z,27.69
2024-05-09T07:06:29.691Z,27.59
2024-05-09T07:07:29.867Z,27.97
2024-05-09T07:08:30.156Z,28.06
2024-05-09T07:09:30.210Z,27.77
2024-05-09T07:10:34.884Z,27.37
2024-05-09T07:11:31.768Z,27.67
2024-05-09T07:12:30.820Z,27.57
2024-05-09T07:13:31.496Z,27.28
2024-05-09T07:14:32.332Z,27.85
2024-05-09T07:15:31.407Z,27.07
2024-05-09T07:16:31.451Z,26.78
2024-05-09T07:17:31.935Z,26.40
2024-05-09T07:18:31.902Z,27.28
2024-05-09T07:19:32.046Z,27.77
2024-05-09T07:20:34.869Z,27.28
2024-05-09T07:21:32.321Z,26.79
2024-05-09T07:22:32.501Z,27.75
2024-05-09T07:23:32.861Z,27.36
2024-05-09T07:24:32.823Z,27.75
2024-05-09T07:25:33.077Z,27.64
2024-05-09T07:26:33.232Z,27.15
2024-05-09T07:27:33.402Z,26.17
2024-05-09T07:28:33.642Z,26.86
2024-05-09T07:29:36.279Z,27.14
2024-05-09T07:30:35.049Z,26.06
2024-05-09T07:31:34.123Z,25.85
2024-05-09T07:32:34.370Z,25.85
2024-05-09T07:33:34.535Z,25.95
2024-05-09T07:34:34.760Z,26.34
2024-05-09T07:35:35.024Z,26.23
2024-05-09T07:36:35.125Z,26.14
2024-05-09T07:37:35.142Z,26.72
2024-05-09T07:38:35.477Z,26.04
2024-05-09T07:39:35.493Z,25.65
2024-05-09T07:40:37.058Z,25.44
2024-05-09T07:41:35.924Z,25.63
2024-05-09T07:42:36.008Z,25.24
2024-05-09T07:43:36.183Z,25.34
2024-05-09T07:44:36.459Z,25.62
2024-05-09T07:45:48.376Z,25.52
2024-05-09T07:47:45.001Z,25.52
2024-05-09T07:48:58.036Z,24.92
2024-05-09T07:53:14.238Z,24.40
2024-05-09T07:53:33.927Z,24.19
2024-05-09T07:53:44.147Z,23.61
2024-05-09T07:54:39.298Z,23.90
2024-05-09T07:55:38.518Z,23.80
2024-05-09T07:56:38.868Z,23.71
2024-05-09T07:57:39.158Z,23.02
2024-05-09T07:58:39.048Z,22.91
2024-05-09T07:59:38.959Z,22.72
2024-05-09T08:00:39.395Z,22.03
2024-05-09T08:01:39.483Z,23.00
2024-05-09T08:02:39.524Z,23.00
2024-05-09T08:03:40.156Z,22.50
2024-05-09T08:04:40.079Z,22.59
2024-05-09T08:05:40.149Z,22.00
2024-05-09T08:06:40.309Z,21.99
2024-05-09T08:07:40.522Z,22.09
2024-05-09T08:08:40.792Z,21.80
2024-05-09T08:09:41.032Z,22.19
2024-05-09T08:10:41.026Z,21.70
2024-05-09T08:11:41.184Z,21.30
2024-05-09T08:12:41.376Z,21.50
2024-05-09T08:13:42.496Z,21.79
2024-05-09T08:14:42.214Z,21.48
2024-05-09T08:15:42.018Z,21.00
2024-05-09T08:16:41.998Z,21.09
2024-05-09T08:17:42.530Z,21.00
